sensor_id;sensor_type;location;lat;lon;timestamp;P1;durP1;ratioP1;P2;durP2;ratioP2
17985;SDS011;9118;48.122;11.546;2023-01-09T00:00:06;8.23;;;6.57;;
17985;SDS011;9118;48.122;11.546;2023-01-09T00:02:34;9.57;;;7.20;;
17985;SDS011;9118;48.122;11.546;2023-01-09T00:05:05;8.80;;;7.00;;
17985;SDS011;9118;48.122;11.546;2023-01-09T00:07:32;8.97;;;7.23;;
17985;SDS011;9118;48.122;11.546;2023-01-09T00:09:59;9.73;;;7.43;;
17985;SDS011;9118;48.122;11.546;2023-01-09T00:12:28;9.63;;;7.27;;
17985;SDS011;9118;48.122;11.546;2023-01-09T00:14:55;9.67;;;7.57;;
17985;SDS011;9118;48.122;11.546;2023-01-09T00:17:24;10.20;;;7.30;;
17985;SDS011;9118;48.122;11.546;2023-01-09T00:19:51;7.23;;;6.10;;
17985;SDS011;9118;48.122;11.546;2023-01-09T00:22:18;9.63;;;7.20;;
17985;SDS011;9118;48.122;11.546;2023-01-09T00:24:45;7.73;;;6.53;;
17985;SDS011;9118;48.122;11.546;2023-01-09T00:27:12;8.53;;;6.50;;
17985;SDS011;9118;48.122;11.546;2023-01-09T00:29:41;7.53;;;6.00;;
17985;SDS011;9118;48.122;11.546;2023-01-09T00:32:09;8.20;;;6.40;;
17985;SDS011;9118;48.122;11.546;2023-01-09T00:34:36;10.20;;;6.60;;
17985;SDS011;9118;48.122;11.546;2023-01-09T00:37:04;6.37;;;5.10;;
17985;SDS011;9118;48.122;11.546;2023-01-09T00:39:35;7.10;;;5.93;;
17985;SDS011;9118;48.122;11.546;2023-01-09T00:42:03;9.33;;;6.27;;
17985;SDS011;9118;48.122;11.546;2023-01-09T00:44:33;7.00;;;5.70;;
17985;SDS011;9118;48.122;11.546;2023-01-09T00:47:05;7.80;;;6.23;;
17985;SDS011;9118;48.122;11.546;2023-01-09T00:49:37;7.83;;;6.47;;
17985;SDS011;9118;48.122;11.546;2023-01-09T00:52:05;9.87;;;6.87;;
17985;SDS011;9118;48.122;11.546;2023-01-09T00:54:35;11.73;;;7.63;;
17985;SDS011;9118;48.122;11.546;2023-01-09T00:57:03;17.77;;;9.73;;
17985;SDS011;9118;48.122;11.546;2023-01-09T00:59:30;10.80;;;6.67;;
17985;SDS011;9118;48.122;11.546;2023-01-09T01:01:57;9.20;;;6.40;;
17985;SDS011;9118;48.122;11.546;2023-01-09T01:04:26;9.33;;;6.50;;
17985;SDS011;9118;48.122;11.546;2023-01-09T01:07:10;9.60;;;6.70;;
17985;SDS011;9118;48.122;11.546;2023-01-09T01:09:54;10.07;;;7.37;;
17985;SDS011;9118;48.122;11.546;2023-01-09T01:12:21;8.47;;;6.73;;
17985;SDS011;9118;48.122;11.546;2023-01-09T01:14:48;11.17;;;7.00;;
17985;SDS011;9118;48.122;11.546;2023-01-09T01:17:15;10.87;;;6.63;;
17985;SDS011;9118;48.122;11.546;2023-01-09T01:19:43;11.13;;;6.90;;
17985;SDS011;9118;48.122;11.546;2023-01-09T01:22:10;7.83;;;6.47;;
17985;SDS011;9118;48.122;11.546;2023-01-09T01:24:37;7.97;;;6.40;;
17985;SDS011;9118;48.122;11.546;2023-01-09T01:27:04;7.70;;;6.13;;
17985;SDS011;9118;48.122;11.546;2023-01-09T01:29:31;8.17;;;6.37;;
17985;SDS011;9118;48.122;11.546;2023-01-09T01:31:59;7.83;;;6.30;;
17985;SDS011;9118;48.122;11.546;2023-01-09T01:34:27;10.20;;;6.80;;
17985;SDS011;9118;48.122;11.546;2023-01-09T01:36:55;7.40;;;6.23;;
17985;SDS011;9118;48.122;11.546;2023-01-09T01:39:24;10.10;;;6.93;;
17985;SDS011;9118;48.122;11.546;2023-01-09T01:41:52;8.40;;;6.50;;
17985;SDS011;9118;48.122;11.546;2023-01-09T01:47:36;9.23;;;6.60;;
17985;SDS011;9118;48.122;11.546;2023-01-09T01:50:08;8.57;;;6.53;;
17985;SDS011;9118;48.122;11.546;2023-01-09T01:52:42;8.37;;;6.43;;
17985;SDS011;9118;48.122;11.546;2023-01-09T01:55:13;7.43;;;6.03;;
17985;SDS011;9118;48.122;11.546;2023-01-09T01:57:44;9.20;;;6.07;;
17985;SDS011;9118;48.122;11.546;2023-01-09T02:00:13;8.27;;;6.30;;
17985;SDS011;9118;48.122;11.546;2023-01-09T02:02:41;6.63;;;5.83;;
17985;SDS011;9118;48.122;11.546;2023-01-09T02:05:09;7.40;;;6.20;;
17985;SDS011;9118;48.122;11.546;2023-01-09T02:07:37;8.20;;;6.50;;
17985;SDS011;9118;48.122;11.546;2023-01-09T02:10:06;7.07;;;5.90;;
17985;SDS011;9118;48.122;11.546;2023-01-09T02:12:33;8.30;;;6.03;;
17985;SDS011;9118;48.122;11.546;2023-01-09T02:15:02;6.60;;;5.80;;
17985;SDS011;9118;48.122;11.546;2023-01-09T02:17:43;8.53;;;6.00;;
17985;SDS011;9118;48.122;11.546;2023-01-09T02:20:39;7.00;;;5.93;;
17985;SDS011;9118;48.122;11.546;2023-01-09T02:29:25;6.83;;;5.20;;
17985;SDS011;9118;48.122;11.546;2023-01-09T02:32:20;6.77;;;5.13;;
17985;SDS011;9118;48.122;11.546;2023-01-09T02:35:05;5.30;;;4.80;;
17985;SDS011;9118;48.122;11.546;2023-01-09T02:37:40;6.50;;;5.10;;
17985;SDS011;9118;48.122;11.546;2023-01-09T02:40:15;5.70;;;5.10;;
17985;SDS011;9118;48.122;11.546;2023-01-09T02:42:47;5.67;;;4.87;;
17985;SDS011;9118;48.122;11.546;2023-01-09T02:45:16;6.07;;;5.03;;
17985;SDS011;9118;48.122;11.546;2023-01-09T02:47:45;6.50;;;4.77;;
17985;SDS011;9118;48.122;11.546;2023-01-09T02:50:14;5.50;;;4.90;;
17985;SDS011;9118;48.122;11.546;2023-01-09T02:52:47;6.27;;;5.10;;
17985;SDS011;9118;48.122;11.546;2023-01-09T02:55:31;6.57;;;5.37;;
17985;SDS011;9118;48.122;11.546;2023-01-09T02:58:07;8.63;;;5.87;;
17985;SDS011;9118;48.122;11.546;2023-01-09T03:00:43;8.37;;;5.80;;
17985;SDS011;9118;48.122;11.546;2023-01-09T03:03:19;9.23;;;6.03;;
17985;SDS011;9118;48.122;11.546;2023-01-09T03:05:52;8.33;;;5.50;;
17985;SDS011;9118;48.122;11.546;2023-01-09T03:08:25;7.50;;;5.13;;
17985;SDS011;9118;48.122;11.546;2023-01-09T03:10:58;7.97;;;5.30;;
17985;SDS011;9118;48.122;11.546;2023-01-09T03:13:29;7.57;;;5.23;;
17985;SDS011;9118;48.122;11.546;2023-01-09T03:15:58;6.93;;;5.37;;
17985;SDS011;9118;48.122;11.546;2023-01-09T03:18:30;6.63;;;5.33;;
17985;SDS011;9118;48.122;11.546;2023-01-09T03:20:59;6.80;;;5.43;;
17985;SDS011;9118;48.122;11.546;2023-01-09T03:23:27;7.47;;;5.70;;
17985;SDS011;9118;48.122;11.546;2023-01-09T03:26:10;8.37;;;6.00;;
17985;SDS011;9118;48.122;11.546;2023-01-09T03:28:37;6.63;;;5.17;;
17985;SDS011;9118;48.122;11.546;2023-01-09T03:31:04;6.17;;;5.43;;
17985;SDS011;9118;48.122;11.546;2023-01-09T03:33:33;7.63;;;5.83;;
17985;SDS011;9118;48.122;11.546;2023-01-09T03:36:00;8.83;;;5.67;;
17985;SDS011;9118;48.122;11.546;2023-01-09T03:38:27;7.30;;;5.57;;
17985;SDS011;9118;48.122;11.546;2023-01-09T03:40:54;7.07;;;5.60;;
17985;SDS011;9118;48.122;11.546;2023-01-09T03:43:21;6.50;;;5.43;;
17985;SDS011;9118;48.122;11.546;2023-01-09T03:45:48;7.03;;;5.63;;
17985;SDS011;9118;48.122;11.546;2023-01-09T03:48:15;7.37;;;5.57;;
17985;SDS011;9118;48.122;11.546;2023-01-09T03:50:43;6.43;;;5.40;;
17985;SDS011;9118;48.122;11.546;2023-01-09T03:53:11;6.40;;;5.60;;
17985;SDS011;9118;48.122;11.546;2023-01-09T03:55:38;5.73;;;5.13;;
17985;SDS011;9118;48.122;11.546;2023-01-09T03:58:05;6.43;;;5.53;;
17985;SDS011;9118;48.122;11.546;2023-01-09T04:00:32;6.97;;;5.90;;
17985;SDS011;9118;48.122;11.546;2023-01-09T04:02:59;7.03;;;5.67;;
17985;SDS011;9118;48.122;11.546;2023-01-09T04:05:26;7.40;;;5.70;;
17985;SDS011;9118;48.122;11.546;2023-01-09T04:07:55;7.13;;;5.40;;
17985;SDS011;9118;48.122;11.546;2023-01-09T04:10:22;6.77;;;4.90;;
17985;SDS011;9118;48.122;11.546;2023-01-09T04:12:49;7.17;;;5.10;;
17985;SDS011;9118;48.122;11.546;2023-01-09T04:15:16;4.80;;;4.30;;
17985;SDS011;9118;48.122;11.546;2023-01-09T04:17:43;4.90;;;4.40;;
17985;SDS011;9118;48.122;11.546;2023-01-09T04:20:10;5.73;;;5.07;;
17985;SDS011;9118;48.122;11.546;2023-01-09T04:22:38;4.53;;;3.50;;
17985;SDS011;9118;48.122;11.546;2023-01-09T04:25:08;3.60;;;3.30;;
17985;SDS011;9118;48.122;11.546;2023-01-09T04:27:35;4.20;;;3.20;;
17985;SDS011;9118;48.122;11.546;2023-01-09T04:30:03;3.90;;;2.97;;
17985;SDS011;9118;48.122;11.546;2023-01-09T04:32:31;3.20;;;2.77;;
17985;SDS011;9118;48.122;11.546;2023-01-09T04:34:58;3.07;;;2.70;;
17985;SDS011;9118;48.122;11.546;2023-01-09T04:37:25;2.90;;;2.43;;
17985;SDS011;9118;48.122;11.546;2023-01-09T04:39:52;2.30;;;2.10;;
17985;SDS011;9118;48.122;11.546;2023-01-09T04:42:21;2.33;;;2.10;;
17985;SDS011;9118;48.122;11.546;2023-01-09T04:44:48;2.20;;;2.10;;
17985;SDS011;9118;48.122;11.546;2023-01-09T04:47:18;2.10;;;1.90;;
17985;SDS011;9118;48.122;11.546;2023-01-09T04:49:45;1.73;;;1.50;;
17985;SDS011;9118;48.122;11.546;2023-01-09T04:52:12;1.87;;;1.67;;
17985;SDS011;9118;48.122;11.546;2023-01-09T04:54:39;1.53;;;1.43;;
17985;SDS011;9118;48.122;11.546;2023-01-09T04:57:06;1.50;;;1.40;;
17985;SDS011;9118;48.122;11.546;2023-01-09T04:59:34;1.40;;;1.30;;
17985;SDS011;9118;48.122;11.546;2023-01-09T05:02:02;1.53;;;1.33;;
17985;SDS011;9118;48.122;11.546;2023-01-09T05:04:28;2.37;;;1.23;;
17985;SDS011;9118;48.122;11.546;2023-01-09T05:06:56;1.30;;;1.20;;
17985;SDS011;9118;48.122;11.546;2023-01-09T05:09:22;1.43;;;1.33;;
17985;SDS011;9118;48.122;11.546;2023-01-09T05:11:49;1.00;;;1.00;;
17985;SDS011;9118;48.122;11.546;2023-01-09T05:14:17;0.90;;;0.90;;
17985;SDS011;9118;48.122;11.546;2023-01-09T05:16:45;0.90;;;0.90;;
17985;SDS011;9118;48.122;11.546;2023-01-09T05:19:13;0.83;;;0.83;;
17985;SDS011;9118;48.122;11.546;2023-01-09T05:21:40;0.70;;;0.70;;
17985;SDS011;9118;48.122;11.546;2023-01-09T05:24:07;0.80;;;0.80;;
17985;SDS011;9118;48.122;11.546;2023-01-09T05:26:34;1.40;;;0.50;;
17985;SDS011;9118;48.122;11.546;2023-01-09T05:29:01;0.60;;;0.60;;
17985;SDS011;9118;48.122;11.546;2023-01-09T05:31:28;0.50;;;0.50;;
17985;SDS011;9118;48.122;11.546;2023-01-09T05:33:57;0.60;;;0.60;;
17985;SDS011;9118;48.122;11.546;2023-01-09T05:36:25;0.60;;;0.60;;
17985;SDS011;9118;48.122;11.546;2023-01-09T05:38:52;0.50;;;0.50;;
17985;SDS011;9118;48.122;11.546;2023-01-09T05:41:21;0.50;;;0.50;;
17985;SDS011;9118;48.122;11.546;2023-01-09T05:43:49;1.00;;;1.00;;
17985;SDS011;9118;48.122;11.546;2023-01-09T05:46:16;0.80;;;0.80;;
17985;SDS011;9118;48.122;11.546;2023-01-09T05:48:44;0.80;;;0.80;;
17985;SDS011;9118;48.122;11.546;2023-01-09T05:51:13;0.60;;;0.60;;
17985;SDS011;9118;48.122;11.546;2023-01-09T05:53:40;0.40;;;0.40;;
17985;SDS011;9118;48.122;11.546;2023-01-09T05:56:07;0.50;;;0.50;;
17985;SDS011;9118;48.122;11.546;2023-01-09T05:58:34;0.67;;;0.67;;
17985;SDS011;9118;48.122;11.546;2023-01-09T06:01:01;1.10;;;0.80;;
17985;SDS011;9118;48.122;11.546;2023-01-09T06:03:28;0.27;;;0.27;;
17985;SDS011;9118;48.122;11.546;2023-01-09T06:05:55;0.50;;;0.50;;
17985;SDS011;9118;48.122;11.546;2023-01-09T06:08:24;1.23;;;0.67;;
17985;SDS011;9118;48.122;11.546;2023-01-09T06:10:51;0.87;;;0.83;;
17985;SDS011;9118;48.122;11.546;2023-01-09T06:13:18;0.90;;;0.80;;
17985;SDS011;9118;48.122;11.546;2023-01-09T06:15:45;4.40;;;2.50;;
17985;SDS011;9118;48.122;11.546;2023-01-09T06:18:14;0.80;;;0.80;;
17985;SDS011;9118;48.122;11.546;2023-01-09T06:20:42;0.70;;;0.70;;
17985;SDS011;9118;48.122;11.546;2023-01-09T06:23:09;1.80;;;1.03;;
17985;SDS011;9118;48.122;11.546;2023-01-09T06:25:38;0.80;;;0.80;;
17985;SDS011;9118;48.122;11.546;2023-01-09T06:28:05;0.70;;;0.70;;
17985;SDS011;9118;48.122;11.546;2023-01-09T06:30:32;0.50;;;0.50;;
17985;SDS011;9118;48.122;11.546;2023-01-09T06:32:59;0.50;;;0.50;;
17985;SDS011;9118;48.122;11.546;2023-01-09T06:35:26;0.50;;;0.50;;
17985;SDS011;9118;48.122;11.546;2023-01-09T06:37:53;1.17;;;0.60;;
17985;SDS011;9118;48.122;11.546;2023-01-09T06:40:21;0.40;;;0.40;;
17985;SDS011;9118;48.122;11.546;2023-01-09T06:42:49;0.57;;;0.57;;
17985;SDS011;9118;48.122;11.546;2023-01-09T06:45:16;0.50;;;0.50;;
17985;SDS011;9118;48.122;11.546;2023-01-09T06:47:43;0.33;;;0.33;;
17985;SDS011;9118;48.122;11.546;2023-01-09T06:50:10;0.50;;;0.50;;
17985;SDS011;9118;48.122;11.546;2023-01-09T06:52:39;0.50;;;0.50;;
17985;SDS011;9118;48.122;11.546;2023-01-09T06:55:06;0.53;;;0.53;;
17985;SDS011;9118;48.122;11.546;2023-01-09T06:57:34;0.40;;;0.40;;
17985;SDS011;9118;48.122;11.546;2023-01-09T07:00:02;0.30;;;0.30;;
17985;SDS011;9118;48.122;11.546;2023-01-09T07:02:30;0.50;;;0.50;;
17985;SDS011;9118;48.122;11.546;2023-01-09T07:04:57;0.60;;;0.60;;
17985;SDS011;9118;48.122;11.546;2023-01-09T07:07:24;0.33;;;0.33;;
17985;SDS011;9118;48.122;11.546;2023-01-09T07:09:51;0.60;;;0.60;;
17985;SDS011;9118;48.122;11.546;2023-01-09T07:12:18;0.60;;;0.60;;
17985;SDS011;9118;48.122;11.546;2023-01-09T07:14:45;0.63;;;0.40;;
17985;SDS011;9118;48.122;11.546;2023-01-09T07:17:13;0.53;;;0.53;;
17985;SDS011;9118;48.122;11.546;2023-01-09T07:19:40;0.67;;;0.67;;
17985;SDS011;9118;48.122;11.546;2023-01-09T07:22:07;0.60;;;0.60;;
17985;SDS011;9118;48.122;11.546;2023-01-09T07:24:36;0.70;;;0.70;;
17985;SDS011;9118;48.122;11.546;2023-01-09T07:27:03;1.13;;;0.80;;
17985;SDS011;9118;48.122;11.546;2023-01-09T07:29:30;0.50;;;0.50;;
17985;SDS011;9118;48.122;11.546;2023-01-09T07:31:57;0.30;;;0.30;;
17985;SDS011;9118;48.122;11.546;2023-01-09T07:34:25;0.40;;;0.40;;
17985;SDS011;9118;48.122;11.546;2023-01-09T07:36:52;0.30;;;0.30;;
17985;SDS011;9118;48.122;11.546;2023-01-09T07:39:19;0.50;;;0.50;;
17985;SDS011;9118;48.122;11.546;2023-01-09T07:41:47;0.60;;;0.60;;
17985;SDS011;9118;48.122;11.546;2023-01-09T07:44:14;0.43;;;0.43;;
17985;SDS011;9118;48.122;11.546;2023-01-09T07:46:42;0.50;;;0.50;;
17985;SDS011;9118;48.122;11.546;2023-01-09T07:49:10;0.40;;;0.40;;
17985;SDS011;9118;48.122;11.546;2023-01-09T07:51:39;0.40;;;0.40;;
17985;SDS011;9118;48.122;11.546;2023-01-09T07:54:07;0.40;;;0.40;;
17985;SDS011;9118;48.122;11.546;2023-01-09T07:56:34;0.50;;;0.50;;
17985;SDS011;9118;48.122;11.546;2023-01-09T07:59:01;0.40;;;0.40;;
17985;SDS011;9118;48.122;11.546;2023-01-09T08:01:28;0.40;;;0.40;;
17985;SDS011;9118;48.122;11.546;2023-01-09T08:03:55;0.63;;;0.50;;
17985;SDS011;9118;48.122;11.546;2023-01-09T08:06:22;0.50;;;0.50;;
17985;SDS011;9118;48.122;11.546;2023-01-09T08:08:51;1.87;;;0.70;;
17985;SDS011;9118;48.122;11.546;2023-01-09T08:11:18;0.60;;;0.60;;
17985;SDS011;9118;48.122;11.546;2023-01-09T08:13:45;0.70;;;0.50;;
17985;SDS011;9118;48.122;11.546;2023-01-09T08:16:12;1.50;;;0.70;;
17985;SDS011;9118;48.122;11.546;2023-01-09T08:18:39;0.97;;;0.70;;
17985;SDS011;9118;48.122;11.546;2023-01-09T08:21:06;0.40;;;0.40;;
17985;SDS011;9118;48.122;11.546;2023-01-09T08:23:33;0.70;;;0.70;;
17985;SDS011;9118;48.122;11.546;2023-01-09T08:26:01;0.50;;;0.50;;
17985;SDS011;9118;48.122;11.546;2023-01-09T08:28:28;0.80;;;0.80;;
17985;SDS011;9118;48.122;11.546;2023-01-09T08:30:55;0.53;;;0.53;;
17985;SDS011;9118;48.122;11.546;2023-01-09T08:33:22;0.60;;;0.60;;
17985;SDS011;9118;48.122;11.546;2023-01-09T08:35:50;3.07;;;0.70;;
17985;SDS011;9118;48.122;11.546;2023-01-09T08:38:18;0.47;;;0.47;;
17985;SDS011;9118;48.122;11.546;2023-01-09T08:40:46;0.70;;;0.70;;
17985;SDS011;9118;48.122;11.546;2023-01-09T08:43:14;0.50;;;0.50;;
17985;SDS011;9118;48.122;11.546;2023-01-09T08:45:59;1.33;;;0.77;;
17985;SDS011;9118;48.122;11.546;2023-01-09T08:48:52;3.43;;;0.80;;
17985;SDS011;9118;48.122;11.546;2023-01-09T08:51:19;0.50;;;0.50;;
17985;SDS011;9118;48.122;11.546;2023-01-09T08:53:46;1.70;;;0.63;;
17985;SDS011;9118;48.122;11.546;2023-01-09T08:56:13;0.70;;;0.70;;
17985;SDS011;9118;48.122;11.546;2023-01-09T08:58:41;0.90;;;0.73;;
17985;SDS011;9118;48.122;11.546;2023-01-09T09:01:09;0.60;;;0.60;;
17985;SDS011;9118;48.122;11.546;2023-01-09T09:03:36;0.73;;;0.73;;
17985;SDS011;9118;48.122;11.546;2023-01-09T09:06:03;1.30;;;0.60;;
17985;SDS011;9118;48.122;11.546;2023-01-09T09:08:30;3.70;;;0.90;;
17985;SDS011;9118;48.122;11.546;2023-01-09T09:10:57;1.53;;;0.60;;
17985;SDS011;9118;48.122;11.546;2023-01-09T09:13:25;0.70;;;0.70;;
17985;SDS011;9118;48.122;11.546;2023-01-09T09:15:53;1.33;;;0.70;;
17985;SDS011;9118;48.122;11.546;2023-01-09T09:18:20;0.80;;;0.80;;
17985;SDS011;9118;48.122;11.546;2023-01-09T09:20:47;3.43;;;0.93;;
17985;SDS011;9118;48.122;11.546;2023-01-09T09:23:15;1.20;;;1.10;;
17985;SDS011;9118;48.122;11.546;2023-01-09T09:25:42;2.00;;;0.90;;
17985;SDS011;9118;48.122;11.546;2023-01-09T09:28:09;0.83;;;0.80;;
17985;SDS011;9118;48.122;11.546;2023-01-09T09:30:36;0.80;;;0.60;;
17985;SDS011;9118;48.122;11.546;2023-01-09T09:33:05;3.17;;;0.80;;
17985;SDS011;9118;48.122;11.546;2023-01-09T09:35:32;0.73;;;0.73;;
17985;SDS011;9118;48.122;11.546;2023-01-09T09:38:00;1.40;;;1.03;;
17985;SDS011;9118;48.122;11.546;2023-01-09T09:43:28;1.40;;;0.80;;
17985;SDS011;9118;48.122;11.546;2023-01-09T09:46:26;1.50;;;0.90;;
17985;SDS011;9118;48.122;11.546;2023-01-09T09:49:03;1.90;;;0.80;;
17985;SDS011;9118;48.122;11.546;2023-01-09T09:51:46;1.63;;;0.83;;
17985;SDS011;9118;48.122;11.546;2023-01-09T09:54:22;2.00;;;0.90;;
17985;SDS011;9118;48.122;11.546;2023-01-09T09:56:55;1.20;;;0.73;;
17985;SDS011;9118;48.122;11.546;2023-01-09T09:59:26;1.50;;;0.67;;
17985;SDS011;9118;48.122;11.546;2023-01-09T10:01:56;0.70;;;0.70;;
17985;SDS011;9118;48.122;11.546;2023-01-09T10:04:29;2.73;;;0.60;;
17985;SDS011;9118;48.122;11.546;2023-01-09T10:06:59;2.00;;;1.13;;
17985;SDS011;9118;48.122;11.546;2023-01-09T10:09:34;2.17;;;0.90;;
17985;SDS011;9118;48.122;11.546;2023-01-09T10:12:12;0.87;;;0.60;;
17985;SDS011;9118;48.122;11.546;2023-01-09T10:14:51;7.07;;;1.40;;
17985;SDS011;9118;48.122;11.546;2023-01-09T10:17:24;2.00;;;0.60;;
17985;SDS011;9118;48.122;11.546;2023-01-09T10:23:21;2.03;;;0.90;;
17985;SDS011;9118;48.122;11.546;2023-01-09T10:26:03;2.83;;;1.40;;
17985;SDS011;9118;48.122;11.546;2023-01-09T10:28:47;2.40;;;1.10;;
17985;SDS011;9118;48.122;11.546;2023-01-09T10:31:24;3.80;;;1.40;;
17985;SDS011;9118;48.122;11.546;2023-01-09T10:33:59;1.80;;;0.80;;
17985;SDS011;9118;48.122;11.546;2023-01-09T10:36:45;3.27;;;1.10;;
17985;SDS011;9118;48.122;11.546;2023-01-09T10:39:25;0.93;;;0.77;;
17985;SDS011;9118;48.122;11.546;2023-01-09T10:41:58;1.83;;;0.97;;
17985;SDS011;9118;48.122;11.546;2023-01-09T10:44:30;3.73;;;0.90;;
17985;SDS011;9118;48.122;11.546;2023-01-09T10:47:01;7.83;;;1.20;;
17985;SDS011;9118;48.122;11.546;2023-01-09T10:49:35;2.70;;;1.10;;
17985;SDS011;9118;48.122;11.546;2023-01-09T10:52:10;4.30;;;0.80;;
17985;SDS011;9118;48.122;11.546;2023-01-09T10:54:44;1.57;;;0.80;;
17985;SDS011;9118;48.122;11.546;2023-01-09T10:57:18;1.40;;;1.00;;
17985;SDS011;9118;48.122;11.546;2023-01-09T10:59:56;0.93;;;0.70;;
17985;SDS011;9118;48.122;11.546;2023-01-09T11:02:24;4.33;;;1.70;;
17985;SDS011;9118;48.122;11.546;2023-01-09T11:04:54;2.83;;;1.10;;
17985;SDS011;9118;48.122;11.546;2023-01-09T11:07:22;2.10;;;1.03;;
17985;SDS011;9118;48.122;11.546;2023-01-09T11:09:57;2.83;;;1.30;;
17985;SDS011;9118;48.122;11.546;2023-01-09T11:12:26;1.97;;;1.47;;
17985;SDS011;9118;48.122;11.546;2023-01-09T11:14:54;1.17;;;1.00;;
17985;SDS011;9118;48.122;11.546;2023-01-09T11:17:24;1.73;;;0.87;;
17985;SDS011;9118;48.122;11.546;2023-01-09T11:20:02;1.63;;;1.40;;
17985;SDS011;9118;48.122;11.546;2023-01-09T11:22:40;2.53;;;1.10;;
17985;SDS011;9118;48.122;11.546;2023-01-09T11:25:12;1.73;;;1.10;;
17985;SDS011;9118;48.122;11.546;2023-01-09T11:27:41;3.50;;;1.10;;
17985;SDS011;9118;48.122;11.546;2023-01-09T11:30:18;1.70;;;0.80;;
17985;SDS011;9118;48.122;11.546;2023-01-09T11:32:50;3.83;;;1.10;;
17985;SDS011;9118;48.122;11.546;2023-01-09T11:35:22;1.40;;;0.90;;
17985;SDS011;9118;48.122;11.546;2023-01-09T11:38:05;1.57;;;0.90;;
17985;SDS011;9118;48.122;11.546;2023-01-09T11:40:48;2.53;;;0.90;;
17985;SDS011;9118;48.122;11.546;2023-01-09T11:43:17;3.33;;;1.23;;
17985;SDS011;9118;48.122;11.546;2023-01-09T11:45:49;3.20;;;1.20;;
17985;SDS011;9118;48.122;11.546;2023-01-09T11:48:37;1.40;;;0.90;;
17985;SDS011;9118;48.122;11.546;2023-01-09T11:51:17;1.90;;;1.10;;
17985;SDS011;9118;48.122;11.546;2023-01-09T11:53:53;1.57;;;1.23;;
17985;SDS011;9118;48.122;11.546;2023-01-09T11:56:39;2.10;;;0.90;;
17985;SDS011;9118;48.122;11.546;2023-01-09T11:59:08;3.20;;;0.90;;
17985;SDS011;9118;48.122;11.546;2023-01-09T12:01:40;0.67;;;0.60;;
17985;SDS011;9118;48.122;11.546;2023-01-09T12:04:29;1.60;;;1.03;;
17985;SDS011;9118;48.122;11.546;2023-01-09T12:07:14;1.90;;;0.70;;
17985;SDS011;9118;48.122;11.546;2023-01-09T12:10:02;2.53;;;0.80;;
17985;SDS011;9118;48.122;11.546;2023-01-09T12:12:44;3.20;;;1.40;;
17985;SDS011;9118;48.122;11.546;2023-01-09T12:15:24;1.33;;;0.83;;
17985;SDS011;9118;48.122;11.546;2023-01-09T12:21:02;3.00;;;0.80;;
17985;SDS011;9118;48.122;11.546;2023-01-09T12:23:40;3.67;;;1.00;;
17985;SDS011;9118;48.122;11.546;2023-01-09T12:26:16;0.90;;;0.70;;
17985;SDS011;9118;48.122;11.546;2023-01-09T12:28:49;1.37;;;0.90;;
17985;SDS011;9118;48.122;11.546;2023-01-09T12:31:31;4.07;;;0.87;;
17985;SDS011;9118;48.122;11.546;2023-01-09T12:34:17;1.20;;;1.00;;
17985;SDS011;9118;48.122;11.546;2023-01-09T12:36:57;2.57;;;1.00;;
17985;SDS011;9118;48.122;11.546;2023-01-09T12:39:38;1.40;;;1.10;;
17985;SDS011;9118;48.122;11.546;2023-01-09T12:42:24;2.90;;;1.30;;
17985;SDS011;9118;48.122;11.546;2023-01-09T12:45:15;3.10;;;1.20;;
17985;SDS011;9118;48.122;11.546;2023-01-09T12:47:58;0.90;;;0.90;;
17985;SDS011;9118;48.122;11.546;2023-01-09T12:50:37;1.30;;;0.70;;
17985;SDS011;9118;48.122;11.546;2023-01-09T12:53:28;2.33;;;0.77;;
17985;SDS011;9118;48.122;11.546;2023-01-09T12:55:59;1.97;;;0.80;;
17985;SDS011;9118;48.122;11.546;2023-01-09T12:58:32;2.10;;;1.07;;
17985;SDS011;9118;48.122;11.546;2023-01-09T13:01:09;2.90;;;1.00;;
17985;SDS011;9118;48.122;11.546;2023-01-09T13:03:40;3.00;;;1.00;;
17985;SDS011;9118;48.122;11.546;2023-01-09T13:06:14;1.33;;;0.97;;
17985;SDS011;9118;48.122;11.546;2023-01-09T13:08:44;0.80;;;0.80;;
17985;SDS011;9118;48.122;11.546;2023-01-09T13:11:14;2.30;;;0.93;;
17985;SDS011;9118;48.122;11.546;2023-01-09T13:13:45;3.03;;;1.20;;
17985;SDS011;9118;48.122;11.546;2023-01-09T13:16:16;0.80;;;0.80;;
17985;SDS011;9118;48.122;11.546;2023-01-09T13:18:47;2.87;;;1.20;;
17985;SDS011;9118;48.122;11.546;2023-01-09T13:21:17;1.43;;;1.33;;
17985;SDS011;9118;48.122;11.546;2023-01-09T13:23:46;3.70;;;1.00;;
17985;SDS011;9118;48.122;11.546;2023-01-09T13:26:18;1.33;;;0.90;;
17985;SDS011;9118;48.122;11.546;2023-01-09T13:28:49;2.13;;;0.60;;
17985;SDS011;9118;48.122;11.546;2023-01-09T13:31:34;0.70;;;0.53;;
17985;SDS011;9118;48.122;11.546;2023-01-09T13:34:10;1.80;;;0.90;;
17985;SDS011;9118;48.122;11.546;2023-01-09T13:36:44;1.40;;;0.80;;
17985;SDS011;9118;48.122;11.546;2023-01-09T13:39:18;1.43;;;0.90;;
17985;SDS011;9118;48.122;11.546;2023-01-09T13:41:46;1.07;;;0.80;;
17985;SDS011;9118;48.122;11.546;2023-01-09T13:44:35;3.77;;;1.17;;
17985;SDS011;9118;48.122;11.546;2023-01-09T13:47:03;2.07;;;1.07;;
17985;SDS011;9118;48.122;11.546;2023-01-09T13:49:32;2.07;;;0.90;;
17985;SDS011;9118;48.122;11.546;2023-01-09T13:52:30;2.23;;;0.90;;
17985;SDS011;9118;48.122;11.546;2023-01-09T13:58:21;2.93;;;0.90;;
17985;SDS011;9118;48.122;11.546;2023-01-09T14:00:53;3.23;;;1.10;;
17985;SDS011;9118;48.122;11.546;2023-01-09T14:03:30;2.17;;;0.80;;
17985;SDS011;9118;48.122;11.546;2023-01-09T14:06:12;1.67;;;1.00;;
17985;SDS011;9118;48.122;11.546;2023-01-09T14:08:43;2.03;;;1.00;;
17985;SDS011;9118;48.122;11.546;2023-01-09T14:11:22;2.27;;;1.10;;
17985;SDS011;9118;48.122;11.546;2023-01-09T14:16:49;2.50;;;1.23;;
17985;SDS011;9118;48.122;11.546;2023-01-09T14:19:21;3.10;;;1.40;;
17985;SDS011;9118;48.122;11.546;2023-01-09T14:21:55;4.20;;;1.00;;
17985;SDS011;9118;48.122;11.546;2023-01-09T14:24:24;1.23;;;1.03;;
17985;SDS011;9118;48.122;11.546;2023-01-09T14:26:54;2.83;;;1.40;;
17985;SDS011;9118;48.122;11.546;2023-01-09T14:35:14;1.97;;;1.10;;
17985;SDS011;9118;48.122;11.546;2023-01-09T14:37:55;1.70;;;0.90;;
17985;SDS011;9118;48.122;11.546;2023-01-09T14:40:27;1.27;;;1.00;;
17985;SDS011;9118;48.122;11.546;2023-01-09T14:42:54;1.30;;;0.70;;
17985;SDS011;9118;48.122;11.546;2023-01-09T14:45:28;3.07;;;1.00;;
17985;SDS011;9118;48.122;11.546;2023-01-09T14:47:57;2.87;;;0.90;;
17985;SDS011;9118;48.122;11.546;2023-01-09T14:50:31;2.83;;;0.90;;
17985;SDS011;9118;48.122;11.546;2023-01-09T14:53:01;1.73;;;1.10;;
17985;SDS011;9118;48.122;11.546;2023-01-09T14:55:34;2.00;;;1.07;;
17985;SDS011;9118;48.122;11.546;2023-01-09T14:58:11;1.37;;;1.20;;
17985;SDS011;9118;48.122;11.546;2023-01-09T15:00:48;2.67;;;0.90;;
17985;SDS011;9118;48.122;11.546;2023-01-09T15:03:18;1.43;;;0.90;;
17985;SDS011;9118;48.122;11.546;2023-01-09T15:05:48;2.67;;;1.00;;
17985;SDS011;9118;48.122;11.546;2023-01-09T15:08:17;1.30;;;1.00;;
17985;SDS011;9118;48.122;11.546;2023-01-09T15:10:48;2.13;;;0.87;;
17985;SDS011;9118;48.122;11.546;2023-01-09T15:13:25;4.17;;;1.13;;
17985;SDS011;9118;48.122;11.546;2023-01-09T15:16:03;1.23;;;1.07;;
17985;SDS011;9118;48.122;11.546;2023-01-09T15:18:33;1.93;;;1.30;;
17985;SDS011;9118;48.122;11.546;2023-01-09T15:21:13;3.20;;;1.40;;
17985;SDS011;9118;48.122;11.546;2023-01-09T15:23:44;1.23;;;1.03;;
17985;SDS011;9118;48.122;11.546;2023-01-09T15:26:12;1.50;;;1.40;;
17985;SDS011;9118;48.122;11.546;2023-01-09T15:28:50;1.87;;;1.20;;
17985;SDS011;9118;48.122;11.546;2023-01-09T15:31:18;1.53;;;1.00;;
17985;SDS011;9118;48.122;11.546;2023-01-09T15:33:49;1.73;;;1.00;;
17985;SDS011;9118;48.122;11.546;2023-01-09T15:36:20;1.57;;;1.00;;
17985;SDS011;9118;48.122;11.546;2023-01-09T15:38:49;1.17;;;1.07;;
17985;SDS011;9118;48.122;11.546;2023-01-09T15:41:19;2.77;;;1.10;;